Archival Weather

Norman Y Mineta San Jose Intl

San Jose, California (KSJC)

Report from: Wednesday, February 21, 2024 2:53 AM PST
Current time: Thursday, June 20, 2024 11:51 PM PDT

Current weather – Weather history – Daily summaries
Weather forecast

Present weatherMist
Temperature8.9°C (48.0°F)
Dew point7.2°C (45.0°F)
Winds Calm
Visibility1.8 mi. (2.8 km)
Clouds Few clouds 200 ft. (61 m)
Few clouds 4,400 ft. (1,341 m)
Altimeter30.09 in.Hg (1019 mB)
Relative humidity89 %
Density altitude-777 ft. (-237 m)
Sea-level pressure101.9 kPa (1019 mB, 30.09 in.Hg)
Remarks Fully automated report
Automated weather observing station with precipitation discriminator
Visibility
Flight conditions Instrument Meteorological Conditions
Raw dataKSJC 211053Z AUTO 00000KT 1 3/4SM R30L/6000VP6000FT BR FEW002 FEW044 09/07 A3009 RMK AO2 VIS 3/4V5 SLP189 T00890072
An error has occurred. This application may no longer respond until reloaded. Reload 🗙